createdAt,value
2018-06-17T00:00:15.635Z,99.90
2018-06-17T00:02:45.509Z,99.90
2018-06-17T00:05:14.586Z,99.90
2018-06-17T00:07:43.574Z,99.90
2018-06-17T00:10:12.595Z,99.90
2018-06-17T00:12:42.138Z,99.90
2018-06-17T00:15:12.354Z,99.90
2018-06-17T00:17:41.363Z,99.90
2018-06-17T00:20:10.431Z,99.90
2018-06-17T00:22:39.451Z,99.90
2018-06-17T00:25:08.537Z,99.90
2018-06-17T00:27:37.579Z,99.90
2018-06-17T00:30:06.573Z,99.90
2018-06-17T00:32:35.613Z,99.90
2018-06-17T00:35:05.523Z,99.90
2018-06-17T00:37:34.534Z,99.90
2018-06-17T00:40:03.549Z,99.90
2018-06-17T00:42:32.624Z,99.90
2018-06-17T00:45:01.715Z,99.90
2018-06-17T00:47:30.768Z,99.90
2018-06-17T00:49:59.802Z,99.90
2018-06-17T00:52:28.835Z,99.90
2018-06-17T00:54:57.873Z,99.90
2018-06-17T00:57:39.257Z,99.90
2018-06-17T01:00:08.316Z,99.90
2018-06-17T01:02:37.402Z,99.90
2018-06-17T01:05:06.762Z,99.90
2018-06-17T01:07:35.821Z,99.90
2018-06-17T01:10:04.823Z,99.90
2018-06-17T01:12:33.947Z,99.90
2018-06-17T01:15:02.976Z,99.90
2018-06-17T01:17:32.020Z,99.90
2018-06-17T01:22:29.865Z,99.90
2018-06-17T01:24:59.010Z,99.90
2018-06-17T01:27:28.169Z,99.90
2018-06-17T01:29:58.416Z,99.90
2018-06-17T01:32:27.450Z,99.90
2018-06-17T01:34:56.442Z,99.90
2018-06-17T01:37:25.479Z,99.90
2018-06-17T01:39:54.599Z,99.90
2018-06-17T01:42:23.581Z,99.90
2018-06-17T01:44:52.594Z,99.90
2018-06-17T01:47:21.622Z,99.90
2018-06-17T01:49:50.773Z,99.90
2018-06-17T01:52:19.812Z,99.90
2018-06-17T01:54:48.960Z,99.90
2018-06-17T01:57:17.967Z,99.90
2018-06-17T01:59:46.998Z,99.90
2018-06-17T02:02:16.814Z,99.90
2018-06-17T02:04:59.952Z,99.90
2018-06-17T02:07:34.183Z,99.90
2018-06-17T02:10:08.406Z,99.90
2018-06-17T02:12:37.426Z,99.90
2018-06-17T02:15:06.617Z,99.90
2018-06-17T02:17:35.622Z,99.90
2018-06-17T02:20:04.948Z,99.90
2018-06-17T02:22:33.975Z,99.90
2018-06-17T02:25:03.062Z,99.90
2018-06-17T02:27:32.456Z,99.90
2018-06-17T02:30:01.509Z,99.90
2018-06-17T02:32:31.367Z,99.90
2018-06-17T02:35:00.433Z,99.90
2018-06-17T02:37:29.563Z,99.90
2018-06-17T02:39:58.949Z,99.90
2018-06-17T02:42:28.039Z,99.90
2018-06-17T02:45:02.438Z,99.90
2018-06-17T02:47:37.844Z,99.90
2018-06-17T02:52:46.512Z,99.90
2018-06-17T02:55:15.597Z,99.90
2018-06-17T02:57:45.796Z,99.90
2018-06-17T03:02:43.519Z,99.90
2018-06-17T03:05:12.520Z,99.90
2018-06-17T03:07:41.560Z,99.90
2018-06-17T03:10:12.373Z,99.90
2018-06-17T03:12:41.399Z,99.90
2018-06-17T03:15:11.628Z,99.90
2018-06-17T03:17:41.635Z,99.90
2018-06-17T03:20:10.649Z,99.90
2018-06-17T03:22:40.312Z,99.90
2018-06-17T03:25:14.637Z,99.90
2018-06-17T03:27:49.079Z,99.90
2018-06-17T03:30:23.481Z,99.90
2018-06-17T03:32:57.885Z,99.90
2018-06-17T03:39:10.517Z,99.90
2018-06-17T03:41:39.519Z,99.90
2018-06-17T03:46:37.208Z,99.90
2018-06-17T03:49:30.712Z,99.90
2018-06-17T03:51:59.765Z,99.90
2018-06-17T03:56:57.455Z,99.90
2018-06-17T04:04:23.899Z,99.90
2018-06-17T04:06:52.985Z,99.90
2018-06-17T04:09:22.061Z,99.90
2018-06-17T04:11:51.283Z,99.90
2018-06-17T04:14:20.372Z,99.90
2018-06-17T04:16:49.445Z,99.90
2018-06-17T04:19:18.567Z,99.90
2018-06-17T04:21:48.842Z,99.90
2018-06-17T04:24:18.730Z,99.90
2018-06-17T04:26:49.742Z,99.90
2018-06-17T04:29:18.838Z,99.90
2018-06-17T04:31:48.856Z,99.90
2018-06-17T04:34:17.901Z,99.90
2018-06-17T04:36:47.046Z,99.90
2018-06-17T04:39:16.116Z,99.90
2018-06-17T04:41:45.232Z,99.90
2018-06-17T04:44:14.346Z,99.90
2018-06-17T04:46:43.396Z,99.90
2018-06-17T04:49:12.522Z,99.90
2018-06-17T04:51:41.626Z,99.90
2018-06-17T04:54:11.050Z,99.90
2018-06-17T04:56:40.222Z,99.90
2018-06-17T04:59:10.536Z,99.90
2018-06-17T05:01:39.715Z,99.90
2018-06-17T05:04:09.117Z,99.90
2018-06-17T05:06:38.489Z,99.90
2018-06-17T05:09:08.669Z,99.90
2018-06-17T05:11:39.035Z,99.90
2018-06-17T05:18:29.656Z,99.90
2018-06-17T05:20:58.847Z,99.60
2018-06-17T05:23:27.901Z,99.90
2018-06-17T05:25:56.966Z,99.90
2018-06-17T05:28:26.079Z,99.90
2018-06-17T05:30:58.063Z,99.90
2018-06-17T05:33:27.305Z,99.90
2018-06-17T05:38:25.043Z,99.90
2018-06-17T05:40:54.576Z,99.90
2018-06-17T05:45:52.404Z,99.90
2018-06-17T05:48:21.568Z,99.90
2018-06-17T05:53:19.365Z,99.90
2018-06-17T05:55:48.535Z,99.90
2018-06-17T05:58:17.563Z,99.90
2018-06-17T06:00:47.838Z,99.90
2018-06-17T06:05:45.675Z,99.90
2018-06-17T06:08:14.721Z,99.90
2018-06-17T06:10:44.599Z,99.90
2018-06-17T06:13:14.496Z,99.90
2018-06-17T06:15:43.674Z,99.90
2018-06-17T06:18:14.028Z,99.90
2018-06-17T06:20:43.180Z,99.90
2018-06-17T06:23:12.351Z,99.90
2018-06-17T06:25:41.437Z,99.90
2018-06-17T06:28:10.587Z,99.90
2018-06-17T06:30:43.786Z,99.90
2018-06-17T06:33:14.863Z,99.90
2018-06-17T06:35:44.062Z,99.90
2018-06-17T06:38:13.184Z,99.90
2018-06-17T06:40:42.249Z,99.90
2018-06-17T06:43:12.387Z,99.40
2018-06-17T06:45:41.697Z,95.80
2018-06-17T06:48:11.485Z,92.10
2018-06-17T06:50:41.802Z,90.00
2018-06-17T06:53:10.963Z,86.70
2018-06-17T06:55:40.019Z,79.40
2018-06-17T06:58:09.074Z,75.40
2018-06-17T07:00:39.309Z,75.70
2018-06-17T07:03:19.977Z,74.10
2018-06-17T07:06:00.358Z,72.10
2018-06-17T07:08:40.798Z,78.80
2018-06-17T07:11:09.870Z,81.20
2018-06-17T07:13:38.979Z,87.40
2018-06-17T07:16:20.666Z,86.50
2018-06-17T07:18:50.126Z,90.10
2018-06-17T07:21:19.077Z,91.10
2018-06-17T07:23:49.217Z,92.30
2018-06-17T07:26:47.989Z,90.60
2018-06-17T07:29:31.520Z,80.00
2018-06-17T07:32:00.366Z,74.10
2018-06-17T07:36:57.717Z,60.00
2018-06-17T07:41:42.134Z,57.50
2018-06-17T07:44:11.337Z,58.00
2018-06-17T07:49:31.797Z,60.00
2018-06-17T07:52:13.652Z,59.20
2018-06-17T07:54:43.204Z,65.70
2018-06-17T07:57:13.272Z,69.20
2018-06-17T07:59:42.020Z,70.60
2018-06-17T08:02:12.035Z,73.50
2018-06-17T08:07:09.830Z,73.50
2018-06-17T08:09:38.975Z,75.10
2018-06-17T08:12:09.439Z,75.20
2018-06-17T08:14:39.406Z,81.80
2018-06-17T08:17:08.269Z,85.00
2018-06-17T08:19:37.355Z,85.30
2018-06-17T08:22:06.166Z,85.70
2018-06-17T08:24:36.123Z,90.80
2018-06-17T08:27:04.986Z,90.90
2018-06-17T08:29:35.808Z,91.70
2018-06-17T08:32:04.765Z,93.20
2018-06-17T08:34:33.540Z,95.30
2018-06-17T08:37:02.387Z,97.00
2018-06-17T08:41:59.772Z,97.60
2018-06-17T08:44:28.577Z,96.60
2018-06-17T08:46:57.475Z,98.30
2018-06-17T08:49:27.202Z,97.70
2018-06-17T08:51:56.290Z,98.40
2018-06-17T08:54:26.147Z,98.60
2018-06-17T08:56:54.986Z,99.20
2018-06-17T09:01:52.887Z,97.30
2018-06-17T09:06:50.312Z,96.50
2018-06-17T09:09:19.111Z,94.80
2018-06-17T09:11:47.927Z,95.20
2018-06-17T09:14:16.763Z,94.10
2018-06-17T09:16:45.650Z,92.40
2018-06-17T09:19:14.507Z,93.30
2018-06-17T09:24:11.901Z,95.40
2018-06-17T09:26:40.731Z,95.60
2018-06-17T09:29:09.580Z,95.30
2018-06-17T09:31:38.351Z,95.40
2018-06-17T09:34:07.176Z,94.20
2018-06-17T09:36:36.321Z,94.20
2018-06-17T09:39:07.576Z,93.00
2018-06-17T09:41:36.372Z,94.80
2018-06-17T09:44:05.217Z,93.80
2018-06-17T09:46:34.143Z,92.90
2018-06-17T09:49:28.982Z,93.40
2018-06-17T09:51:57.958Z,93.70
2018-06-17T09:54:26.672Z,93.90
2018-06-17T09:56:56.714Z,94.50
2018-06-17T09:59:25.552Z,94.10
2018-06-17T10:01:55.158Z,94.60
2018-06-17T10:04:24.003Z,93.50
2018-06-17T10:06:52.827Z,93.50
2018-06-17T10:09:21.746Z,92.80
2018-06-17T10:11:51.160Z,93.10
2018-06-17T10:14:20.266Z,94.70
2018-06-17T10:16:51.058Z,92.70
2018-06-17T10:19:20.111Z,93.20
2018-06-17T10:21:49.170Z,92.80
2018-06-17T10:24:18.195Z,93.70
2018-06-17T10:26:47.241Z,92.10
2018-06-17T10:29:16.345Z,88.30
2018-06-17T10:31:45.444Z,89.20
2018-06-17T10:34:14.463Z,89.20
2018-06-17T10:36:43.532Z,87.50
2018-06-17T10:39:12.515Z,90.00
2018-06-17T10:41:43.566Z,90.90
2018-06-17T10:44:13.491Z,90.40
2018-06-17T10:46:43.446Z,89.40
2018-06-17T10:49:19.060Z,90.00
2018-06-17T10:51:48.130Z,89.30
2018-06-17T10:54:17.211Z,86.80
2018-06-17T10:56:46.416Z,86.80
2018-06-17T10:59:15.517Z,84.50
2018-06-17T11:01:45.464Z,84.10
2018-06-17T11:04:15.460Z,85.50
2018-06-17T11:06:44.759Z,85.40
2018-06-17T11:09:13.819Z,85.40
2018-06-17T11:11:42.894Z,85.50
2018-06-17T11:14:11.937Z,84.20
2018-06-17T11:16:41.033Z,87.70
2018-06-17T11:19:10.092Z,85.90
2018-06-17T11:21:39.119Z,88.10
2018-06-17T11:24:09.757Z,89.20
2018-06-17T11:26:38.906Z,89.40
2018-06-17T11:29:07.932Z,85.70
2018-06-17T11:31:36.951Z,89.50
2018-06-17T11:34:06.060Z,89.70
2018-06-17T11:36:35.047Z,90.20
2018-06-17T11:39:05.553Z,88.30
2018-06-17T11:41:35.212Z,88.10
2018-06-17T11:44:04.245Z,90.10
2018-06-17T11:46:34.482Z,88.30
2018-06-17T11:49:03.605Z,88.20
2018-06-17T11:51:32.683Z,90.60
2018-06-17T11:54:01.790Z,90.40
2018-06-17T11:56:30.909Z,87.90
2018-06-17T11:58:59.888Z,86.40
2018-06-17T12:01:28.916Z,86.50
2018-06-17T12:03:57.920Z,87.10
2018-06-17T12:06:27.733Z,85.10
2018-06-17T12:08:56.762Z,82.20
2018-06-17T12:11:25.753Z,84.90
2018-06-17T12:13:55.053Z,83.60
2018-06-17T12:16:24.129Z,85.90
2018-06-17T12:18:53.321Z,85.40
2018-06-17T12:21:22.425Z,85.60
2018-06-17T12:23:51.443Z,84.20
2018-06-17T12:26:20.479Z,82.30
2018-06-17T12:28:49.817Z,87.50
2018-06-17T12:31:18.838Z,85.90
2018-06-17T12:33:47.925Z,86.40
2018-06-17T12:36:16.935Z,86.30
2018-06-17T12:38:46.114Z,86.30
2018-06-17T12:41:15.136Z,88.80
2018-06-17T12:43:45.292Z,92.90
2018-06-17T12:46:14.468Z,94.70
2018-06-17T12:48:43.462Z,97.90
2018-06-17T12:51:12.480Z,98.60
2018-06-17T12:53:41.562Z,99.90
2018-06-17T12:56:10.581Z,99.90
2018-06-17T12:58:39.611Z,99.90
2018-06-17T13:01:08.639Z,99.90
2018-06-17T13:03:37.755Z,99.90
2018-06-17T13:06:06.868Z,99.90
2018-06-17T13:08:35.877Z,99.90
2018-06-17T13:11:06.101Z,99.90
2018-06-17T13:13:35.187Z,99.90
2018-06-17T13:16:04.307Z,99.90
2018-06-17T13:21:02.015Z,99.90
2018-06-17T13:23:31.080Z,99.90
2018-06-17T13:26:00.052Z,99.90
2018-06-17T13:28:29.038Z,99.90
2018-06-17T13:30:58.067Z,99.90
2018-06-17T13:33:27.848Z,99.90
2018-06-17T13:35:57.441Z,99.90
2018-06-17T13:38:26.456Z,99.90
2018-06-17T13:40:55.516Z,99.90
2018-06-17T13:43:25.316Z,99.90
2018-06-17T13:45:55.555Z,99.90
2018-06-17T13:48:24.522Z,99.90
2018-06-17T13:50:53.615Z,99.90
2018-06-17T13:53:22.606Z,99.90
2018-06-17T13:55:52.882Z,99.90
2018-06-17T13:58:21.868Z,99.90
2018-06-17T14:00:50.913Z,99.90
2018-06-17T14:03:20.008Z,99.90
2018-06-17T14:05:49.012Z,99.90
2018-06-17T14:08:20.465Z,99.90
2018-06-17T14:10:50.026Z,99.90
2018-06-17T14:18:16.498Z,99.90
2018-06-17T14:20:45.581Z,99.90
2018-06-17T14:23:14.582Z,99.90
2018-06-17T14:25:43.863Z,99.90
2018-06-17T14:28:12.880Z,99.90
2018-06-17T14:33:10.628Z,99.90
2018-06-17T14:35:39.612Z,99.90
2018-06-17T14:38:08.690Z,99.90
2018-06-17T14:40:43.085Z,99.90
2018-06-17T14:43:17.415Z,98.50
2018-06-17T14:45:51.960Z,98.60
2018-06-17T14:48:26.333Z,97.30
2018-06-17T14:51:00.688Z,93.60
2018-06-17T14:53:29.784Z,93.40
2018-06-17T14:55:59.789Z,93.40
2018-06-17T14:58:28.841Z,93.30
2018-06-17T15:00:57.860Z,94.00
2018-06-17T15:03:26.996Z,93.70
2018-06-17T15:05:57.642Z,93.00
2018-06-17T15:08:26.721Z,92.60
2018-06-17T15:10:55.825Z,92.80
2018-06-17T15:13:24.898Z,93.20
2018-06-17T15:15:55.412Z,92.80
2018-06-17T15:18:24.408Z,92.40
2018-06-17T15:20:53.495Z,93.40
2018-06-17T15:23:22.524Z,93.20
2018-06-17T15:25:51.607Z,93.70
2018-06-17T15:28:20.651Z,94.70
2018-06-17T15:30:49.706Z,95.00
2018-06-17T15:33:24.672Z,95.70
2018-06-17T15:35:59.918Z,96.10
2018-06-17T15:38:34.531Z,96.00
2018-06-17T15:41:08.947Z,96.50
2018-06-17T15:43:41.707Z,97.10
2018-06-17T15:46:10.740Z,97.20
2018-06-17T15:48:40.424Z,98.60
2018-06-17T15:56:47.271Z,99.00
2018-06-17T16:01:46.532Z,99.20
2018-06-17T16:04:20.143Z,99.90
2018-06-17T16:06:52.684Z,99.90
2018-06-17T16:09:23.440Z,99.90
2018-06-17T16:13:03.712Z,99.90
2018-06-17T16:15:40.452Z,99.90
2018-06-17T16:18:18.935Z,99.90
2018-06-17T16:20:55.641Z,99.90
2018-06-17T16:23:26.710Z,99.90
2018-06-17T16:25:58.776Z,99.90
2018-06-17T16:28:30.300Z,99.90
2018-06-17T16:31:03.197Z,99.90
2018-06-17T16:33:36.659Z,99.90
2018-06-17T16:36:10.278Z,99.90
2018-06-17T16:38:43.928Z,99.90
2018-06-17T16:41:14.795Z,99.90
2018-06-17T16:43:51.576Z,99.90
2018-06-17T16:48:53.224Z,99.90
2018-06-17T16:51:28.163Z,99.90
2018-06-17T16:56:37.078Z,99.90
2018-06-17T16:59:11.491Z,99.90
2018-06-17T17:01:40.675Z,99.90
2018-06-17T17:04:09.944Z,99.90
2018-06-17T17:09:09.503Z,99.90
2018-06-17T17:11:40.307Z,99.90
2018-06-17T17:14:10.075Z,99.90
2018-06-17T17:16:39.388Z,99.90
2018-06-17T17:19:08.455Z,99.90
2018-06-17T17:21:37.638Z,99.70
2018-06-17T17:24:06.977Z,99.90
2018-06-17T17:26:36.142Z,99.50
2018-06-17T17:29:05.298Z,99.50
2018-06-17T17:31:41.114Z,99.00
2018-06-17T17:34:15.875Z,98.50
2018-06-17T17:36:50.551Z,99.10
2018-06-17T17:39:25.767Z,99.90
2018-06-17T17:41:55.820Z,99.60
2018-06-17T17:44:25.028Z,99.40
2018-06-17T17:46:59.591Z,99.90
2018-06-17T17:49:28.736Z,99.90
2018-06-17T17:51:57.844Z,99.90
2018-06-17T17:54:27.031Z,99.90
2018-06-17T17:56:56.160Z,99.90
2018-06-17T18:01:57.810Z,99.90
2018-06-17T18:04:27.096Z,99.90
2018-06-17T18:06:56.262Z,99.90
2018-06-17T18:09:26.290Z,99.90
2018-06-17T18:11:55.356Z,99.90
2018-06-17T18:14:24.464Z,99.90
2018-06-17T18:16:53.612Z,99.90
2018-06-17T18:19:22.782Z,99.90
2018-06-17T18:21:52.066Z,99.90
2018-06-17T18:24:21.402Z,99.90
2018-06-17T18:26:56.749Z,99.90
2018-06-17T18:30:29.055Z,99.90
2018-06-17T18:33:03.542Z,99.90
2018-06-17T18:35:38.337Z,99.90
2018-06-17T18:38:07.647Z,99.90
2018-06-17T18:40:36.871Z,99.90
2018-06-17T18:43:08.244Z,99.90
2018-06-17T18:45:38.651Z,99.90
2018-06-17T18:48:07.874Z,99.90
2018-06-17T18:50:37.152Z,99.90
2018-06-17T18:53:06.657Z,99.90
2018-06-17T18:55:36.138Z,99.90
2018-06-17T18:58:06.613Z,99.90
2018-06-17T19:00:36.708Z,99.90
2018-06-17T19:03:05.847Z,99.90
2018-06-17T19:05:36.383Z,99.90
2018-06-17T19:08:08.498Z,99.90
2018-06-17T19:10:43.500Z,99.90
2018-06-17T19:13:18.401Z,99.90
2018-06-17T19:15:52.993Z,99.90
2018-06-17T19:18:22.724Z,99.90
2018-06-17T19:20:52.067Z,99.90
2018-06-17T19:23:21.222Z,99.90
2018-06-17T19:25:50.741Z,99.90
2018-06-17T19:28:19.905Z,99.90
2018-06-17T19:30:49.316Z,99.90
2018-06-17T19:33:18.510Z,99.90
2018-06-17T19:35:47.660Z,99.90
2018-06-17T19:38:17.096Z,99.90
2018-06-17T19:40:46.246Z,99.90
2018-06-17T19:43:15.996Z,99.90
2018-06-17T19:45:45.193Z,99.90
2018-06-17T19:48:14.291Z,99.90
2018-06-17T19:50:48.953Z,99.90
2018-06-17T19:53:23.465Z,99.90
2018-06-17T19:58:33.812Z,99.90
2018-06-17T20:01:04.184Z,99.90
2018-06-17T20:03:33.542Z,99.90
2018-06-17T20:06:02.797Z,99.90
2018-06-17T20:08:32.190Z,99.90
2018-06-17T20:11:01.434Z,99.90
2018-06-17T20:13:30.553Z,99.90
2018-06-17T20:18:29.853Z,99.90
2018-06-17T20:20:59.101Z,99.90
2018-06-17T20:23:28.791Z,99.90
2018-06-17T20:25:58.545Z,99.90
2018-06-17T20:28:27.617Z,99.90
2018-06-17T20:31:01.030Z,99.90
2018-06-17T20:33:35.499Z,99.90
2018-06-17T20:36:09.963Z,99.90
2018-06-17T20:38:44.633Z,99.90
2018-06-17T20:41:19.123Z,99.90
2018-06-17T20:43:51.840Z,99.90
2018-06-17T20:46:20.956Z,99.90
2018-06-17T20:48:50.494Z,99.90
2018-06-17T20:51:20.157Z,99.90
2018-06-17T20:53:49.445Z,99.90
2018-06-17T20:56:18.537Z,99.90
2018-06-17T20:58:47.672Z,99.90
2018-06-17T21:01:16.751Z,99.90
2018-06-17T21:03:45.843Z,99.90
2018-06-17T21:06:15.022Z,99.90
2018-06-17T21:08:44.221Z,99.90
2018-06-17T21:11:13.336Z,99.90
2018-06-17T21:13:42.448Z,99.90
2018-06-17T21:16:11.523Z,99.90
2018-06-17T21:21:20.541Z,99.90
2018-06-17T21:23:55.084Z,99.90
2018-06-17T21:26:29.622Z,99.90
2018-06-17T21:28:58.667Z,99.90
2018-06-17T21:31:27.712Z,99.90
2018-06-17T21:36:25.568Z,99.90
2018-06-17T21:38:54.599Z,99.90
2018-06-17T21:41:23.673Z,99.90
2018-06-17T21:43:52.645Z,99.90
2018-06-17T21:46:21.790Z,99.90
2018-06-17T21:48:50.825Z,99.90
2018-06-17T21:51:19.941Z,99.90
2018-06-17T21:53:49.007Z,99.90
2018-06-17T21:56:21.130Z,99.90
2018-06-17T21:58:50.116Z,99.90
2018-06-17T22:03:48.634Z,99.90
2018-06-17T22:06:17.676Z,99.90
2018-06-17T22:08:52.154Z,99.90
2018-06-17T22:11:26.556Z,99.90
2018-06-17T22:14:01.007Z,99.90
2018-06-17T22:16:36.093Z,99.90
2018-06-17T22:19:05.269Z,99.90
2018-06-17T22:21:34.375Z,99.90
2018-06-17T22:24:03.379Z,99.90
2018-06-17T22:29:02.204Z,99.90
2018-06-17T22:31:31.220Z,99.90
2018-06-17T22:34:00.296Z,99.90
2018-06-17T22:36:30.167Z,99.90
2018-06-17T22:39:00.233Z,99.90
2018-06-17T22:41:29.253Z,99.90
2018-06-17T22:43:58.276Z,99.90
2018-06-17T22:46:28.415Z,99.90
2018-06-17T22:48:58.218Z,99.90
2018-06-17T22:51:27.236Z,99.90
2018-06-17T22:54:07.799Z,99.90
2018-06-17T22:56:42.360Z,99.90
2018-06-17T22:59:16.658Z,99.90
2018-06-17T23:01:51.221Z,99.90
2018-06-17T23:04:25.744Z,99.90
2018-06-17T23:07:00.244Z,99.90
2018-06-17T23:09:32.624Z,99.90
2018-06-17T23:12:01.941Z,99.90
2018-06-17T23:14:32.142Z,99.90
2018-06-17T23:17:01.484Z,99.90
2018-06-17T23:19:30.655Z,99.90
2018-06-17T23:22:00.923Z,99.90
2018-06-17T23:24:29.960Z,99.90
2018-06-17T23:26:58.967Z,99.90
2018-06-17T23:29:29.241Z,99.90
2018-06-17T23:31:58.260Z,99.90
2018-06-17T23:34:27.309Z,99.90
2018-06-17T23:39:26.766Z,99.90
2018-06-17T23:41:55.881Z,99.90
2018-06-17T23:44:24.987Z,99.90
2018-06-17T23:47:00.935Z,99.90
2018-06-17T23:49:35.532Z,99.90
2018-06-17T23:52:10.020Z,99.90
2018-06-17T23:54:44.487Z,99.90
2018-06-17T23:57:13.570Z,99.90
2018-06-17T23:59:42.616Z,99.90
